sensor_id;sensor_type;location;lat;lon;timestamp;P1;durP1;ratioP1;P2;durP2;ratioP2
8281;SDS011;25606;42.686;23.136;2022-08-21T00:01:24;4.50;;;3.60;;
8281;SDS011;25606;42.686;23.136;2022-08-21T00:03:52;5.20;;;3.57;;
8281;SDS011;25606;42.686;23.136;2022-08-21T00:06:21;6.03;;;3.60;;
8281;SDS011;25606;42.686;23.136;2022-08-21T00:08:49;7.50;;;3.87;;
8281;SDS011;25606;42.686;23.136;2022-08-21T00:11:16;5.27;;;4.00;;
8281;SDS011;25606;42.686;23.136;2022-08-21T00:13:43;7.27;;;4.60;;
8281;SDS011;25606;42.686;23.136;2022-08-21T00:16:11;7.23;;;4.77;;
8281;SDS011;25606;42.686;23.136;2022-08-21T00:18:38;10.83;;;4.53;;
8281;SDS011;25606;42.686;23.136;2022-08-21T00:21:05;6.63;;;5.00;;
8281;SDS011;25606;42.686;23.136;2022-08-21T00:23:34;5.67;;;4.27;;
8281;SDS011;25606;42.686;23.136;2022-08-21T00:26:02;5.70;;;3.70;;
8281;SDS011;25606;42.686;23.136;2022-08-21T00:28:29;8.70;;;4.10;;
8281;SDS011;25606;42.686;23.136;2022-08-21T00:30:57;6.77;;;3.97;;
8281;SDS011;25606;42.686;23.136;2022-08-21T00:33:24;7.60;;;3.90;;
8281;SDS011;25606;42.686;23.136;2022-08-21T00:35:52;8.53;;;4.13;;
8281;SDS011;25606;42.686;23.136;2022-08-21T00:38:19;5.80;;;4.20;;
8281;SDS011;25606;42.686;23.136;2022-08-21T00:40:48;7.93;;;4.53;;
8281;SDS011;25606;42.686;23.136;2022-08-21T00:43:20;8.03;;;4.63;;
8281;SDS011;25606;42.686;23.136;2022-08-21T00:45:48;9.53;;;4.80;;
8281;SDS011;25606;42.686;23.136;2022-08-21T00:48:15;8.00;;;4.03;;
8281;SDS011;25606;42.686;23.136;2022-08-21T00:50:44;5.73;;;4.10;;
8281;SDS011;25606;42.686;23.136;2022-08-21T00:53:13;7.53;;;3.70;;
8281;SDS011;25606;42.686;23.136;2022-08-21T00:55:40;5.93;;;3.13;;
8281;SDS011;25606;42.686;23.136;2022-08-21T00:58:10;6.47;;;3.37;;
8281;SDS011;25606;42.686;23.136;2022-08-21T01:00:39;6.47;;;3.63;;
8281;SDS011;25606;42.686;23.136;2022-08-21T01:03:09;4.37;;;3.23;;
8281;SDS011;25606;42.686;23.136;2022-08-21T01:05:37;6.23;;;3.40;;
8281;SDS011;25606;42.686;23.136;2022-08-21T01:08:04;8.90;;;3.80;;
8281;SDS011;25606;42.686;23.136;2022-08-21T01:10:33;5.73;;;3.33;;
8281;SDS011;25606;42.686;23.136;2022-08-21T01:13:00;8.93;;;3.90;;
8281;SDS011;25606;42.686;23.136;2022-08-21T01:15:32;7.43;;;3.80;;
8281;SDS011;25606;42.686;23.136;2022-08-21T01:18:01;6.63;;;3.97;;
8281;SDS011;25606;42.686;23.136;2022-08-21T01:20:28;5.87;;;3.60;;
8281;SDS011;25606;42.686;23.136;2022-08-21T01:22:57;6.37;;;4.07;;
8281;SDS011;25606;42.686;23.136;2022-08-21T01:25:24;6.20;;;4.17;;
8281;SDS011;25606;42.686;23.136;2022-08-21T01:27:52;5.70;;;3.83;;
8281;SDS011;25606;42.686;23.136;2022-08-21T01:30:19;3.90;;;3.50;;
8281;SDS011;25606;42.686;23.136;2022-08-21T01:32:47;7.03;;;3.53;;
8281;SDS011;25606;42.686;23.136;2022-08-21T01:35:15;6.70;;;3.50;;
8281;SDS011;25606;42.686;23.136;2022-08-21T01:37:43;7.10;;;4.17;;
8281;SDS011;25606;42.686;23.136;2022-08-21T01:40:12;8.80;;;3.43;;
8281;SDS011;25606;42.686;23.136;2022-08-21T01:42:39;9.00;;;3.40;;
8281;SDS011;25606;42.686;23.136;2022-08-21T01:45:06;4.73;;;3.80;;
8281;SDS011;25606;42.686;23.136;2022-08-21T01:47:34;10.60;;;3.97;;
8281;SDS011;25606;42.686;23.136;2022-08-21T01:50:02;5.03;;;3.13;;
8281;SDS011;25606;42.686;23.136;2022-08-21T01:52:30;6.97;;;3.53;;
8281;SDS011;25606;42.686;23.136;2022-08-21T01:54:57;6.27;;;3.00;;
8281;SDS011;25606;42.686;23.136;2022-08-21T01:57:25;3.37;;;3.07;;
8281;SDS011;25606;42.686;23.136;2022-08-21T01:59:53;5.23;;;2.97;;
8281;SDS011;25606;42.686;23.136;2022-08-21T02:02:20;6.70;;;3.60;;
8281;SDS011;25606;42.686;23.136;2022-08-21T02:04:47;7.43;;;3.60;;
8281;SDS011;25606;42.686;23.136;2022-08-21T02:07:15;6.50;;;3.37;;
8281;SDS011;25606;42.686;23.136;2022-08-21T02:09:42;4.47;;;3.10;;
8281;SDS011;25606;42.686;23.136;2022-08-21T02:12:09;6.00;;;3.60;;
8281;SDS011;25606;42.686;23.136;2022-08-21T02:14:39;6.90;;;3.00;;
8281;SDS011;25606;42.686;23.136;2022-08-21T02:17:06;7.87;;;3.00;;
8281;SDS011;25606;42.686;23.136;2022-08-21T02:19:33;8.67;;;3.57;;
8281;SDS011;25606;42.686;23.136;2022-08-21T02:22:00;3.70;;;2.77;;
8281;SDS011;25606;42.686;23.136;2022-08-21T02:24:28;4.80;;;2.97;;
8281;SDS011;25606;42.686;23.136;2022-08-21T02:26:55;5.67;;;3.40;;
8281;SDS011;25606;42.686;23.136;2022-08-21T02:29:22;8.00;;;3.67;;
8281;SDS011;25606;42.686;23.136;2022-08-21T02:31:51;6.70;;;3.57;;
8281;SDS011;25606;42.686;23.136;2022-08-21T02:34:18;6.90;;;3.37;;
8281;SDS011;25606;42.686;23.136;2022-08-21T02:36:46;5.70;;;3.20;;
8281;SDS011;25606;42.686;23.136;2022-08-21T02:39:13;5.70;;;3.37;;
8281;SDS011;25606;42.686;23.136;2022-08-21T02:41:40;5.17;;;3.10;;
8281;SDS011;25606;42.686;23.136;2022-08-21T02:44:08;10.10;;;3.50;;
8281;SDS011;25606;42.686;23.136;2022-08-21T02:46:35;6.80;;;3.87;;
8281;SDS011;25606;42.686;23.136;2022-08-21T02:49:04;51.60;;;5.70;;
8281;SDS011;25606;42.686;23.136;2022-08-21T02:51:31;8.63;;;3.93;;
8281;SDS011;25606;42.686;23.136;2022-08-21T02:53:58;7.00;;;3.50;;
8281;SDS011;25606;42.686;23.136;2022-08-21T02:56:26;4.37;;;3.60;;
8281;SDS011;25606;42.686;23.136;2022-08-21T02:58:54;4.30;;;3.50;;
8281;SDS011;25606;42.686;23.136;2022-08-21T03:01:21;7.97;;;3.67;;
8281;SDS011;25606;42.686;23.136;2022-08-21T03:03:49;5.90;;;3.30;;
8281;SDS011;25606;42.686;23.136;2022-08-21T03:06:18;8.20;;;3.73;;
8281;SDS011;25606;42.686;23.136;2022-08-21T03:08:46;7.13;;;3.57;;
8281;SDS011;25606;42.686;23.136;2022-08-21T03:11:14;6.73;;;2.87;;
8281;SDS011;25606;42.686;23.136;2022-08-21T03:13:42;8.30;;;2.63;;
8281;SDS011;25606;42.686;23.136;2022-08-21T03:16:10;6.07;;;3.07;;
8281;SDS011;25606;42.686;23.136;2022-08-21T03:18:37;7.27;;;3.10;;
8281;SDS011;25606;42.686;23.136;2022-08-21T03:21:05;6.40;;;3.00;;
8281;SDS011;25606;42.686;23.136;2022-08-21T03:23:33;4.30;;;2.80;;
8281;SDS011;25606;42.686;23.136;2022-08-21T03:26:00;4.57;;;3.03;;
8281;SDS011;25606;42.686;23.136;2022-08-21T03:28:28;9.00;;;3.77;;
8281;SDS011;25606;42.686;23.136;2022-08-21T03:30:55;7.53;;;4.13;;
8281;SDS011;25606;42.686;23.136;2022-08-21T03:33:22;4.27;;;3.77;;
8281;SDS011;25606;42.686;23.136;2022-08-21T03:35:53;6.10;;;3.50;;
8281;SDS011;25606;42.686;23.136;2022-08-21T03:38:21;6.57;;;4.13;;
8281;SDS011;25606;42.686;23.136;2022-08-21T03:40:49;6.53;;;3.40;;
8281;SDS011;25606;42.686;23.136;2022-08-21T03:43:16;5.33;;;2.97;;
8281;SDS011;25606;42.686;23.136;2022-08-21T03:45:44;6.83;;;3.73;;
8281;SDS011;25606;42.686;23.136;2022-08-21T03:48:11;3.80;;;2.80;;
8281;SDS011;25606;42.686;23.136;2022-08-21T03:50:40;4.73;;;3.13;;
8281;SDS011;25606;42.686;23.136;2022-08-21T03:53:08;7.47;;;3.37;;
8281;SDS011;25606;42.686;23.136;2022-08-21T03:55:35;5.30;;;3.70;;
8281;SDS011;25606;42.686;23.136;2022-08-21T03:58:04;8.03;;;2.90;;
8281;SDS011;25606;42.686;23.136;2022-08-21T04:00:31;4.97;;;2.53;;
8281;SDS011;25606;42.686;23.136;2022-08-21T04:02:58;5.53;;;2.90;;
8281;SDS011;25606;42.686;23.136;2022-08-21T04:05:26;4.10;;;2.80;;
8281;SDS011;25606;42.686;23.136;2022-08-21T04:07:54;5.27;;;2.90;;
8281;SDS011;25606;42.686;23.136;2022-08-21T04:10:21;4.13;;;3.00;;
8281;SDS011;25606;42.686;23.136;2022-08-21T04:12:50;7.23;;;3.33;;
8281;SDS011;25606;42.686;23.136;2022-08-21T04:15:19;7.47;;;3.40;;
8281;SDS011;25606;42.686;23.136;2022-08-21T04:17:47;5.43;;;3.83;;
8281;SDS011;25606;42.686;23.136;2022-08-21T04:20:14;7.10;;;3.50;;
8281;SDS011;25606;42.686;23.136;2022-08-21T04:22:41;5.90;;;3.23;;
8281;SDS011;25606;42.686;23.136;2022-08-21T04:25:09;8.53;;;5.30;;
8281;SDS011;25606;42.686;23.136;2022-08-21T04:27:37;7.30;;;4.10;;
8281;SDS011;25606;42.686;23.136;2022-08-21T04:30:04;7.30;;;4.37;;
8281;SDS011;25606;42.686;23.136;2022-08-21T04:32:33;6.10;;;4.67;;
8281;SDS011;25606;42.686;23.136;2022-08-21T04:35:01;5.77;;;5.00;;
8281;SDS011;25606;42.686;23.136;2022-08-21T04:37:29;7.23;;;5.07;;
8281;SDS011;25606;42.686;23.136;2022-08-21T04:39:56;7.90;;;5.07;;
8281;SDS011;25606;42.686;23.136;2022-08-21T04:42:23;4.53;;;3.87;;
8281;SDS011;25606;42.686;23.136;2022-08-21T04:44:51;7.97;;;4.07;;
8281;SDS011;25606;42.686;23.136;2022-08-21T04:47:18;6.77;;;3.90;;
8281;SDS011;25606;42.686;23.136;2022-08-21T04:49:47;6.53;;;4.00;;
8281;SDS011;25606;42.686;23.136;2022-08-21T04:52:15;6.97;;;4.90;;
8281;SDS011;25606;42.686;23.136;2022-08-21T04:54:43;10.10;;;5.80;;
8281;SDS011;25606;42.686;23.136;2022-08-21T04:57:11;13.27;;;6.37;;
8281;SDS011;25606;42.686;23.136;2022-08-21T04:59:39;9.00;;;6.53;;
8281;SDS011;25606;42.686;23.136;2022-08-21T05:02:08;8.20;;;5.97;;
8281;SDS011;25606;42.686;23.136;2022-08-21T05:04:36;10.37;;;6.90;;
8281;SDS011;25606;42.686;23.136;2022-08-21T05:07:06;8.83;;;6.60;;
8281;SDS011;25606;42.686;23.136;2022-08-21T05:09:34;10.00;;;5.90;;
8281;SDS011;25606;42.686;23.136;2022-08-21T05:12:02;12.50;;;6.77;;
8281;SDS011;25606;42.686;23.136;2022-08-21T05:14:29;11.33;;;7.07;;
8281;SDS011;25606;42.686;23.136;2022-08-21T05:16:56;10.20;;;6.83;;
8281;SDS011;25606;42.686;23.136;2022-08-21T05:19:24;9.63;;;7.63;;
8281;SDS011;25606;42.686;23.136;2022-08-21T05:21:52;11.23;;;8.27;;
8281;SDS011;25606;42.686;23.136;2022-08-21T05:24:21;9.37;;;7.27;;
8281;SDS011;25606;42.686;23.136;2022-08-21T05:26:48;7.97;;;5.00;;
8281;SDS011;25606;42.686;23.136;2022-08-21T05:29:16;6.53;;;4.70;;
8281;SDS011;25606;42.686;23.136;2022-08-21T05:31:44;4.70;;;3.40;;
8281;SDS011;25606;42.686;23.136;2022-08-21T05:34:11;6.77;;;4.83;;
8281;SDS011;25606;42.686;23.136;2022-08-21T05:36:39;13.17;;;7.50;;
8281;SDS011;25606;42.686;23.136;2022-08-21T05:39:06;10.20;;;6.87;;
8281;SDS011;25606;42.686;23.136;2022-08-21T05:41:35;12.00;;;7.57;;
8281;SDS011;25606;42.686;23.136;2022-08-21T05:44:03;12.27;;;7.43;;
8281;SDS011;25606;42.686;23.136;2022-08-21T05:46:30;12.33;;;8.83;;
8281;SDS011;25606;42.686;23.136;2022-08-21T05:48:57;11.37;;;8.03;;
8281;SDS011;25606;42.686;23.136;2022-08-21T05:51:24;11.23;;;8.83;;
8281;SDS011;25606;42.686;23.136;2022-08-21T05:53:52;13.23;;;8.70;;
8281;SDS011;25606;42.686;23.136;2022-08-21T05:56:19;9.77;;;8.03;;
8281;SDS011;25606;42.686;23.136;2022-08-21T05:58:48;14.17;;;8.50;;
8281;SDS011;25606;42.686;23.136;2022-08-21T06:01:15;13.57;;;8.27;;
8281;SDS011;25606;42.686;23.136;2022-08-21T06:03:42;11.63;;;7.50;;
8281;SDS011;25606;42.686;23.136;2022-08-21T06:06:09;10.03;;;6.10;;
8281;SDS011;25606;42.686;23.136;2022-08-21T06:08:37;8.40;;;5.70;;
8281;SDS011;25606;42.686;23.136;2022-08-21T06:11:04;9.53;;;5.73;;
8281;SDS011;25606;42.686;23.136;2022-08-21T06:13:32;8.80;;;6.23;;
8281;SDS011;25606;42.686;23.136;2022-08-21T06:16:05;9.30;;;6.33;;
8281;SDS011;25606;42.686;23.136;2022-08-21T06:18:33;6.10;;;5.50;;
8281;SDS011;25606;42.686;23.136;2022-08-21T06:21:01;5.10;;;4.33;;
8281;SDS011;25606;42.686;23.136;2022-08-21T06:23:28;6.70;;;3.87;;
8281;SDS011;25606;42.686;23.136;2022-08-21T06:25:55;4.77;;;3.57;;
8281;SDS011;25606;42.686;23.136;2022-08-21T06:28:23;6.97;;;3.67;;
8281;SDS011;25606;42.686;23.136;2022-08-21T06:30:50;3.10;;;2.90;;
8281;SDS011;25606;42.686;23.136;2022-08-21T06:33:19;5.57;;;3.70;;
8281;SDS011;25606;42.686;23.136;2022-08-21T06:35:46;4.77;;;3.40;;
8281;SDS011;25606;42.686;23.136;2022-08-21T06:38:13;4.10;;;3.03;;
8281;SDS011;25606;42.686;23.136;2022-08-21T06:40:41;5.30;;;3.43;;
8281;SDS011;25606;42.686;23.136;2022-08-21T06:43:09;3.88;;;3.53;;
8281;SDS011;25606;42.686;23.136;2022-08-21T06:45:37;4.95;;;3.85;;
8281;SDS011;25606;42.686;23.136;2022-08-21T06:48:04;5.38;;;4.10;;
8281;SDS011;25606;42.686;23.136;2022-08-21T06:50:34;4.53;;;3.58;;
8281;SDS011;25606;42.686;23.136;2022-08-21T06:53:02;4.57;;;4.17;;
8281;SDS011;25606;42.686;23.136;2022-08-21T06:55:30;5.93;;;4.23;;
8281;SDS011;25606;42.686;23.136;2022-08-21T06:57:57;7.50;;;4.10;;
8281;SDS011;25606;42.686;23.136;2022-08-21T07:00:25;6.33;;;3.73;;
8281;SDS011;25606;42.686;23.136;2022-08-21T07:02:52;4.93;;;3.90;;
8281;SDS011;25606;42.686;23.136;2022-08-21T07:05:20;9.67;;;4.17;;
8281;SDS011;25606;42.686;23.136;2022-08-21T07:07:48;6.53;;;4.40;;
8281;SDS011;25606;42.686;23.136;2022-08-21T07:10:16;6.07;;;3.97;;
8281;SDS011;25606;42.686;23.136;2022-08-21T07:12:43;11.90;;;4.43;;
8281;SDS011;25606;42.686;23.136;2022-08-21T07:15:10;5.63;;;4.53;;
8281;SDS011;25606;42.686;23.136;2022-08-21T07:17:37;8.97;;;4.73;;
8281;SDS011;25606;42.686;23.136;2022-08-21T07:20:05;6.83;;;4.20;;
8281;SDS011;25606;42.686;23.136;2022-08-21T07:22:33;6.43;;;4.47;;
8281;SDS011;25606;42.686;23.136;2022-08-21T07:25:03;9.17;;;4.43;;
8281;SDS011;25606;42.686;23.136;2022-08-21T07:27:31;4.13;;;3.83;;
8281;SDS011;25606;42.686;23.136;2022-08-21T07:29:58;6.27;;;4.47;;
8281;SDS011;25606;42.686;23.136;2022-08-21T07:32:25;5.27;;;4.23;;
8281;SDS011;25606;42.686;23.136;2022-08-21T07:34:53;6.93;;;4.87;;
8281;SDS011;25606;42.686;23.136;2022-08-21T07:37:20;4.80;;;4.17;;
8281;SDS011;25606;42.686;23.136;2022-08-21T07:39:48;5.93;;;4.17;;
8281;SDS011;25606;42.686;23.136;2022-08-21T07:42:17;5.13;;;3.80;;
8281;SDS011;25606;42.686;23.136;2022-08-21T07:44:44;7.50;;;4.10;;
8281;SDS011;25606;42.686;23.136;2022-08-21T07:47:11;6.80;;;3.63;;
8281;SDS011;25606;42.686;23.136;2022-08-21T07:49:39;4.93;;;4.03;;
8281;SDS011;25606;42.686;23.136;2022-08-21T07:52:06;8.40;;;3.70;;
8281;SDS011;25606;42.686;23.136;2022-08-21T07:54:33;5.63;;;4.17;;
8281;SDS011;25606;42.686;23.136;2022-08-21T07:57:01;4.00;;;3.37;;
8281;SDS011;25606;42.686;23.136;2022-08-21T07:59:30;6.10;;;3.77;;
8281;SDS011;25606;42.686;23.136;2022-08-21T08:01:57;5.17;;;4.03;;
8281;SDS011;25606;42.686;23.136;2022-08-21T08:04:25;7.10;;;4.53;;
8281;SDS011;25606;42.686;23.136;2022-08-21T08:06:52;6.53;;;4.07;;
8281;SDS011;25606;42.686;23.136;2022-08-21T08:09:19;6.03;;;4.10;;
8281;SDS011;25606;42.686;23.136;2022-08-21T08:11:46;5.13;;;3.90;;
8281;SDS011;25606;42.686;23.136;2022-08-21T08:14:13;9.53;;;4.83;;
8281;SDS011;25606;42.686;23.136;2022-08-21T08:16:43;5.17;;;4.20;;
8281;SDS011;25606;42.686;23.136;2022-08-21T08:19:10;4.47;;;3.80;;
8281;SDS011;25606;42.686;23.136;2022-08-21T08:21:37;5.53;;;4.50;;
8281;SDS011;25606;42.686;23.136;2022-08-21T08:24:05;6.23;;;4.10;;
8281;SDS011;25606;42.686;23.136;2022-08-21T08:26:32;7.23;;;4.50;;
8281;SDS011;25606;42.686;23.136;2022-08-21T08:28:59;4.43;;;3.93;;
8281;SDS011;25606;42.686;23.136;2022-08-21T08:31:26;7.30;;;4.50;;
8281;SDS011;25606;42.686;23.136;2022-08-21T08:33:55;7.70;;;4.57;;
8281;SDS011;25606;42.686;23.136;2022-08-21T08:36:30;7.33;;;5.30;;
8281;SDS011;25606;42.686;23.136;2022-08-21T08:38:58;6.40;;;5.27;;
8281;SDS011;25606;42.686;23.136;2022-08-21T08:41:25;7.77;;;5.43;;
8281;SDS011;25606;42.686;23.136;2022-08-21T08:43:53;5.73;;;5.13;;
8281;SDS011;25606;42.686;23.136;2022-08-21T08:46:24;8.13;;;6.00;;
8281;SDS011;25606;42.686;23.136;2022-08-21T08:48:53;7.13;;;6.10;;
8281;SDS011;25606;42.686;23.136;2022-08-21T08:51:24;12.03;;;7.10;;
8281;SDS011;25606;42.686;23.136;2022-08-21T08:53:54;9.70;;;7.60;;
8281;SDS011;25606;42.686;23.136;2022-08-21T08:56:26;8.30;;;7.43;;
8281;SDS011;25606;42.686;23.136;2022-08-21T08:58:53;10.07;;;7.43;;
8281;SDS011;25606;42.686;23.136;2022-08-21T09:01:23;9.50;;;8.20;;
8281;SDS011;25606;42.686;23.136;2022-08-21T09:03:50;10.97;;;8.27;;
8281;SDS011;25606;42.686;23.136;2022-08-21T09:06:21;8.57;;;7.70;;
8281;SDS011;25606;42.686;23.136;2022-08-21T09:08:53;12.17;;;7.40;;
8281;SDS011;25606;42.686;23.136;2022-08-21T09:11:23;10.30;;;6.37;;
8281;SDS011;25606;42.686;23.136;2022-08-21T09:13:55;9.03;;;6.77;;
8281;SDS011;25606;42.686;23.136;2022-08-21T09:16:28;8.33;;;7.23;;
8281;SDS011;25606;42.686;23.136;2022-08-21T09:18:59;8.17;;;6.50;;
8281;SDS011;25606;42.686;23.136;2022-08-21T09:21:31;8.97;;;6.60;;
8281;SDS011;25606;42.686;23.136;2022-08-21T09:24:06;8.40;;;6.10;;
8281;SDS011;25606;42.686;23.136;2022-08-21T09:26:40;8.23;;;6.83;;
8281;SDS011;25606;42.686;23.136;2022-08-21T09:29:11;12.07;;;6.87;;
8281;SDS011;25606;42.686;23.136;2022-08-21T09:31:38;8.63;;;7.13;;
8281;SDS011;25606;42.686;23.136;2022-08-21T09:34:06;9.83;;;7.50;;
8281;SDS011;25606;42.686;23.136;2022-08-21T09:36:36;9.13;;;7.30;;
8281;SDS011;25606;42.686;23.136;2022-08-21T09:39:06;9.87;;;7.10;;
8281;SDS011;25606;42.686;23.136;2022-08-21T09:41:34;7.93;;;6.80;;
8281;SDS011;25606;42.686;23.136;2022-08-21T09:44:02;7.50;;;6.40;;
8281;SDS011;25606;42.686;23.136;2022-08-21T09:46:29;7.67;;;6.73;;
8281;SDS011;25606;42.686;23.136;2022-08-21T09:48:58;6.87;;;6.03;;
8281;SDS011;25606;42.686;23.136;2022-08-21T09:51:26;10.83;;;6.40;;
8281;SDS011;25606;42.686;23.136;2022-08-21T09:53:55;9.97;;;6.50;;
8281;SDS011;25606;42.686;23.136;2022-08-21T09:56:28;11.70;;;6.63;;
8281;SDS011;25606;42.686;23.136;2022-08-21T09:59:19;7.30;;;5.83;;
8281;SDS011;25606;42.686;23.136;2022-08-21T10:01:47;10.63;;;7.00;;
8281;SDS011;25606;42.686;23.136;2022-08-21T10:04:18;8.70;;;6.63;;
8281;SDS011;25606;42.686;23.136;2022-08-21T10:06:46;11.27;;;7.27;;
8281;SDS011;25606;42.686;23.136;2022-08-21T10:09:14;11.33;;;6.60;;
8281;SDS011;25606;42.686;23.136;2022-08-21T10:11:45;9.23;;;6.00;;
8281;SDS011;25606;42.686;23.136;2022-08-21T10:14:16;7.97;;;6.17;;
8281;SDS011;25606;42.686;23.136;2022-08-21T10:16:52;7.17;;;6.47;;
8281;SDS011;25606;42.686;23.136;2022-08-21T10:19:25;13.47;;;6.67;;
8281;SDS011;25606;42.686;23.136;2022-08-21T10:21:59;6.93;;;6.03;;
8281;SDS011;25606;42.686;23.136;2022-08-21T10:24:29;8.75;;;5.93;;
8281;SDS011;25606;42.686;23.136;2022-08-21T10:27:01;7.05;;;6.35;;
8281;SDS011;25606;42.686;23.136;2022-08-21T10:29:37;7.43;;;6.35;;
8281;SDS011;25606;42.686;23.136;2022-08-21T10:32:12;8.77;;;6.65;;
8281;SDS011;25606;42.686;23.136;2022-08-21T10:34:45;8.40;;;6.18;;
8281;SDS011;25606;42.686;23.136;2022-08-21T10:37:18;10.35;;;6.28;;
8281;SDS011;25606;42.686;23.136;2022-08-21T10:39:52;8.30;;;5.72;;
8281;SDS011;25606;42.686;23.136;2022-08-21T10:42:27;7.63;;;5.95;;
8281;SDS011;25606;42.686;23.136;2022-08-21T10:45:02;5.88;;;5.07;;
8281;SDS011;25606;42.686;23.136;2022-08-21T10:47:32;6.28;;;5.50;;
8281;SDS011;25606;42.686;23.136;2022-08-21T10:50:03;8.27;;;5.57;;
8281;SDS011;25606;42.686;23.136;2022-08-21T10:52:48;6.32;;;5.35;;
8281;SDS011;25606;42.686;23.136;2022-08-21T10:55:18;6.68;;;5.10;;
8281;SDS011;25606;42.686;23.136;2022-08-21T10:57:47;8.35;;;5.95;;
8281;SDS011;25606;42.686;23.136;2022-08-21T11:00:17;10.77;;;5.75;;
8281;SDS011;25606;42.686;23.136;2022-08-21T11:02:47;9.30;;;5.70;;
8281;SDS011;25606;42.686;23.136;2022-08-21T11:05:16;8.55;;;6.05;;
8281;SDS011;25606;42.686;23.136;2022-08-21T11:07:45;8.10;;;5.90;;
8281;SDS011;25606;42.686;23.136;2022-08-21T11:10:15;8.07;;;5.68;;
8281;SDS011;25606;42.686;23.136;2022-08-21T11:12:44;8.30;;;5.43;;
8281;SDS011;25606;42.686;23.136;2022-08-21T11:15:21;7.60;;;5.20;;
8281;SDS011;25606;42.686;23.136;2022-08-21T11:17:53;8.52;;;5.43;;
8281;SDS011;25606;42.686;23.136;2022-08-21T11:20:26;6.38;;;4.93;;
8281;SDS011;25606;42.686;23.136;2022-08-21T11:22:56;7.05;;;5.10;;
8281;SDS011;25606;42.686;23.136;2022-08-21T11:25:26;6.30;;;4.90;;
8281;SDS011;25606;42.686;23.136;2022-08-21T11:27:54;7.93;;;4.80;;
8281;SDS011;25606;42.686;23.136;2022-08-21T11:30:27;9.30;;;4.40;;
8281;SDS011;25606;42.686;23.136;2022-08-21T11:33:05;6.72;;;5.30;;
8281;SDS011;25606;42.686;23.136;2022-08-21T11:35:38;7.38;;;4.95;;
8281;SDS011;25606;42.686;23.136;2022-08-21T11:40:51;10.20;;;4.85;;
8281;SDS011;25606;42.686;23.136;2022-08-21T11:43:23;7.55;;;4.80;;
8281;SDS011;25606;42.686;23.136;2022-08-21T11:45:59;8.48;;;5.22;;
8281;SDS011;25606;42.686;23.136;2022-08-21T11:48:32;6.05;;;5.03;;
8281;SDS011;25606;42.686;23.136;2022-08-21T11:51:03;11.77;;;5.28;;
8281;SDS011;25606;42.686;23.136;2022-08-21T11:53:34;5.13;;;4.50;;
8281;SDS011;25606;42.686;23.136;2022-08-21T11:56:03;9.10;;;5.22;;
8281;SDS011;25606;42.686;23.136;2022-08-21T11:58:35;5.70;;;4.78;;
8281;SDS011;25606;42.686;23.136;2022-08-21T12:01:07;8.27;;;5.28;;
8281;SDS011;25606;42.686;23.136;2022-08-21T12:03:36;5.80;;;4.28;;
8281;SDS011;25606;42.686;23.136;2022-08-21T12:06:05;7.47;;;5.95;;
8281;SDS011;25606;42.686;23.136;2022-08-21T12:08:34;8.23;;;5.40;;
8281;SDS011;25606;42.686;23.136;2022-08-21T12:11:03;6.13;;;5.28;;
8281;SDS011;25606;42.686;23.136;2022-08-21T12:13:31;6.75;;;4.85;;
8281;SDS011;25606;42.686;23.136;2022-08-21T12:16:07;7.10;;;4.82;;
8281;SDS011;25606;42.686;23.136;2022-08-21T12:18:34;9.00;;;4.80;;
8281;SDS011;25606;42.686;23.136;2022-08-21T12:21:05;9.05;;;5.07;;
8281;SDS011;25606;42.686;23.136;2022-08-21T12:23:33;10.50;;;5.18;;
8281;SDS011;25606;42.686;23.136;2022-08-21T12:26:18;6.50;;;4.28;;
8281;SDS011;25606;42.686;23.136;2022-08-21T12:28:46;4.35;;;3.95;;
8281;SDS011;25606;42.686;23.136;2022-08-21T12:31:22;5.60;;;4.30;;
8281;SDS011;25606;42.686;23.136;2022-08-21T12:33:51;5.00;;;4.10;;
8281;SDS011;25606;42.686;23.136;2022-08-21T12:36:20;10.37;;;4.60;;
8281;SDS011;25606;42.686;23.136;2022-08-21T12:38:50;6.07;;;4.35;;
8281;SDS011;25606;42.686;23.136;2022-08-21T12:41:19;6.27;;;3.93;;
8281;SDS011;25606;42.686;23.136;2022-08-21T12:43:48;9.15;;;4.10;;
8281;SDS011;25606;42.686;23.136;2022-08-21T12:46:18;5.87;;;4.90;;
8281;SDS011;25606;42.686;23.136;2022-08-21T12:48:48;6.22;;;4.65;;
8281;SDS011;25606;42.686;23.136;2022-08-21T12:51:18;5.33;;;4.40;;
8281;SDS011;25606;42.686;23.136;2022-08-21T12:53:50;7.07;;;4.43;;
8281;SDS011;25606;42.686;23.136;2022-08-21T12:56:18;5.20;;;4.17;;
8281;SDS011;25606;42.686;23.136;2022-08-21T12:58:46;5.57;;;4.47;;
8281;SDS011;25606;42.686;23.136;2022-08-21T13:01:15;6.37;;;3.97;;
8281;SDS011;25606;42.686;23.136;2022-08-21T13:03:43;6.63;;;3.83;;
8281;SDS011;25606;42.686;23.136;2022-08-21T13:06:14;6.17;;;4.20;;
8281;SDS011;25606;42.686;23.136;2022-08-21T13:08:42;6.20;;;4.03;;
8281;SDS011;25606;42.686;23.136;2022-08-21T13:11:10;6.27;;;3.87;;
8281;SDS011;25606;42.686;23.136;2022-08-21T13:13:37;8.00;;;3.93;;
8281;SDS011;25606;42.686;23.136;2022-08-21T13:16:05;5.90;;;3.40;;
8281;SDS011;25606;42.686;23.136;2022-08-21T13:18:34;6.43;;;3.77;;
8281;SDS011;25606;42.686;23.136;2022-08-21T13:21:06;7.07;;;3.50;;
8281;SDS011;25606;42.686;23.136;2022-08-21T13:23:35;6.93;;;3.90;;
8281;SDS011;25606;42.686;23.136;2022-08-21T13:26:11;5.83;;;4.03;;
8281;SDS011;25606;42.686;23.136;2022-08-21T13:28:39;4.43;;;3.87;;
8281;SDS011;25606;42.686;23.136;2022-08-21T13:31:06;5.47;;;4.03;;
8281;SDS011;25606;42.686;23.136;2022-08-21T13:33:35;6.73;;;4.10;;
8281;SDS011;25606;42.686;23.136;2022-08-21T13:36:04;7.07;;;3.50;;
8281;SDS011;25606;42.686;23.136;2022-08-21T13:38:33;7.03;;;3.60;;
8281;SDS011;25606;42.686;23.136;2022-08-21T13:41:03;4.27;;;3.87;;
8281;SDS011;25606;42.686;23.136;2022-08-21T13:43:32;5.67;;;3.67;;
8281;SDS011;25606;42.686;23.136;2022-08-21T13:45:59;6.70;;;4.67;;
8281;SDS011;25606;42.686;23.136;2022-08-21T13:48:28;14.90;;;9.17;;
8281;SDS011;25606;42.686;23.136;2022-08-21T13:50:56;18.67;;;12.80;;
8281;SDS011;25606;42.686;23.136;2022-08-21T13:53:27;19.80;;;14.30;;
8281;SDS011;25606;42.686;23.136;2022-08-21T13:55:55;15.50;;;11.77;;
8281;SDS011;25606;42.686;23.136;2022-08-21T13:58:27;9.67;;;7.37;;
8281;SDS011;25606;42.686;23.136;2022-08-21T14:00:55;8.30;;;5.00;;
8281;SDS011;25606;42.686;23.136;2022-08-21T14:03:26;5.83;;;4.50;;
8281;SDS011;25606;42.686;23.136;2022-08-21T14:05:53;7.10;;;4.37;;
8281;SDS011;25606;42.686;23.136;2022-08-21T14:08:23;4.43;;;4.03;;
8281;SDS011;25606;42.686;23.136;2022-08-21T14:10:51;5.73;;;4.60;;
8281;SDS011;25606;42.686;23.136;2022-08-21T14:13:26;5.73;;;4.17;;
8281;SDS011;25606;42.686;23.136;2022-08-21T14:15:57;6.70;;;3.93;;
8281;SDS011;25606;42.686;23.136;2022-08-21T14:18:25;4.47;;;4.03;;
8281;SDS011;25606;42.686;23.136;2022-08-21T14:21:03;7.00;;;3.97;;
8281;SDS011;25606;42.686;23.136;2022-08-21T14:23:30;10.27;;;4.00;;
8281;SDS011;25606;42.686;23.136;2022-08-21T14:25:58;5.23;;;3.97;;
8281;SDS011;25606;42.686;23.136;2022-08-21T14:28:27;6.10;;;3.83;;
8281;SDS011;25606;42.686;23.136;2022-08-21T14:30:55;6.37;;;3.50;;
8281;SDS011;25606;42.686;23.136;2022-08-21T14:33:25;8.83;;;3.73;;
8281;SDS011;25606;42.686;23.136;2022-08-21T14:35:52;7.47;;;4.10;;
8281;SDS011;25606;42.686;23.136;2022-08-21T14:38:20;7.97;;;4.25;;
8281;SDS011;25606;42.686;23.136;2022-08-21T14:40:50;11.45;;;4.13;;
8281;SDS011;25606;42.686;23.136;2022-08-21T14:43:17;7.25;;;4.32;;
8281;SDS011;25606;42.686;23.136;2022-08-21T14:45:45;6.85;;;4.93;;
8281;SDS011;25606;42.686;23.136;2022-08-21T14:48:12;8.88;;;4.80;;
8281;SDS011;25606;42.686;23.136;2022-08-21T14:50:41;5.72;;;4.45;;
8281;SDS011;25606;42.686;23.136;2022-08-21T14:53:08;8.23;;;4.63;;
8281;SDS011;25606;42.686;23.136;2022-08-21T14:55:36;5.70;;;4.47;;
8281;SDS011;25606;42.686;23.136;2022-08-21T14:58:17;6.63;;;5.07;;